Time;durP1;ratioP1;P1;durP2;ratioP2;P2;SDS_P1;SDS_P2;PMS_P1;PMS_P2;Temp;Humidity;BMP_temperature;BMP_pressure;BME280_temperature;BME280_humidity;BME280_pressure;Samples;Min_cycle;Max_cycle;Signal;HPM_P1;HPM_P2
2021/12/02 00:00:13;;;;;;;1.42;1.10;;;;;;;4.45;100.00;96612.69;12757946;23;20036;-85
2021/12/02 00:05:20;;;;;;;1.77;1.23;;;;;;;4.40;100.00;96615.56;12753779;23;20049;-85
2021/12/02 00:10:28;;;;;;;2.15;1.58;;;;;;;4.40;100.00;96625.41;12733841;23;20025;-84
2021/12/02 00:15:51;;;;;;;3.25;2.22;;;;;;;4.44;100.00;96640.34;12724979;23;20043;-84
2021/12/02 00:21:07;;;;;;;1.95;1.67;;;;;;;4.56;100.00;96635.09;12698768;23;20029;-83
2021/12/02 00:26:23;;;;;;;2.72;1.60;;;;;;;4.54;100.00;96621.38;12695295;23;20369;-85
2021/12/02 00:31:37;;;;;;;1.65;1.52;;;;;;;4.68;100.00;96621.13;12707897;23;20099;-83
2021/12/02 00:36:50;;;;;;;2.35;1.38;;;;;;;4.75;100.00;96612.63;12747344;23;20025;-81
2021/12/02 00:41:58;;;;;;;2.53;1.73;;;;;;;4.80;100.00;96631.03;12774313;23;20100;-83
2021/12/02 00:47:04;;;;;;;2.15;1.80;;;;;;;4.85;100.00;96628.19;12745528;23;20021;-85
2021/12/02 00:52:09;;;;;;;2.33;1.80;;;;;;;4.77;100.00;96626.38;12766437;23;20065;-86
2021/12/02 00:57:16;;;;;;;2.30;1.63;;;;;;;4.80;100.00;96607.88;12735649;23;20112;-84
2021/12/02 01:02:19;;;;;;;2.63;1.90;;;;;;;4.81;100.00;96625.38;12715384;23;20025;-84
2021/12/02 01:07:38;;;;;;;2.30;1.85;;;;;;;4.78;100.00;96622.63;12758676;23;20017;-82
2021/12/02 01:12:41;;;;;;;3.75;1.85;;;;;;;4.74;100.00;96624.34;12736675;23;20014;-84
2021/12/02 01:17:44;;;;;;;3.10;2.03;;;;;;;4.76;100.00;96616.84;12775574;23;20115;-85
2021/12/02 01:22:53;;;;;;;4.05;2.28;;;;;;;4.73;100.00;96612.16;12780988;23;20039;-84
2021/12/02 01:28:00;;;;;;;2.88;1.77;;;;;;;4.70;100.00;96605.63;12750048;23;20128;-86
2021/12/02 01:33:07;;;;;;;3.67;2.30;;;;;;;4.61;100.00;96625.41;12778857;23;20001;-86
2021/12/02 01:38:23;;;;;;;3.38;1.67;;;;;;;4.55;100.00;96632.78;12761343;23;20022;-86
2021/12/02 01:43:54;;;;;;;2.22;1.90;;;;;;;4.50;100.00;96635.66;12759888;23;20001;-85
2021/12/02 01:49:19;;;;;;;2.65;2.03;;;;;;;4.37;100.00;96641.97;12752964;23;20025;-85
2021/12/02 01:54:27;;;;;;;2.53;2.00;;;;;;;4.36;100.00;96643.84;12724541;23;20028;-85
2021/12/02 01:59:39;;;;;;;6.72;1.80;;;;;;;4.45;100.00;96628.63;12722197;23;20079;-81
2021/12/02 02:04:59;;;;;;;1.70;1.60;;;;;;;4.55;100.00;96643.41;12718576;23;20009;-87
2021/12/02 02:10:10;;;;;;;4.22;2.63;;;;;;;4.41;100.00;96635.69;12765008;23;20037;-84
2021/12/02 02:15:32;;;;;;;2.85;1.70;;;;;;;4.39;100.00;96637.09;12751153;23;20025;-80
2021/12/02 02:26:50;;;;;;;2.97;1.90;;;;;;;4.24;100.00;96641.91;12772741;23;20032;-83
2021/12/02 02:32:13;;;;;;;4.38;2.00;;;;;;;4.26;100.00;96646.88;12746994;23;20021;-81
2021/12/02 02:37:38;;;;;;;3.70;2.33;;;;;;;4.33;100.00;96659.66;12725249;23;20021;-82
2021/12/02 02:42:40;;;;;;;3.60;2.40;;;;;;;4.44;100.00;96655.53;12750659;23;20005;-83
2021/12/02 02:47:50;;;;;;;4.10;2.35;;;;;;;4.43;100.00;96651.31;12710478;23;20012;-84
2021/12/02 02:53:13;;;;;;;4.75;2.55;;;;;;;4.50;100.00;96651.59;12770679;23;20424;-83
2021/12/02 03:21:00;;;;;;;2.65;2.28;;;;;;;4.52;100.00;96646.72;12738585;23;20025;-79
2021/12/02 03:26:25;;;;;;;7.07;2.40;;;;;;;4.44;100.00;96639.59;12737812;23;20029;-81
2021/12/02 03:31:30;;;;;;;4.13;2.20;;;;;;;4.37;100.00;96636.66;12713598;23;20014;-81
2021/12/02 03:36:31;;;;;;;4.40;2.65;;;;;;;4.30;100.00;96642.50;12730784;23;20437;-81
2021/12/02 03:41:50;;;;;;;4.65;2.28;;;;;;;4.27;100.00;96651.09;12759980;23;20206;-82
2021/12/02 03:47:09;;;;;;;;;;;;;;;;;;;;;
2021/12/02 03:52:10;;;;;;;4.95;2.42;;;;;;;4.30;100.00;96653.13;12721121;23;20310;-83
2021/12/02 03:57:50;;;;;;;3.75;2.45;;;;;;;4.34;100.00;96647.94;12741664;23;20448;-83
2021/12/02 04:02:51;;;;;;;2.20;1.98;;;;;;;4.37;100.00;96639.31;12705795;23;20052;-83
2021/12/02 04:19:49;;;;;;;4.05;2.42;;;;;;;4.33;100.00;96644.50;12707583;23;20362;-84
2021/12/02 04:24:50;;;;;;;2.67;2.13;;;;;;;4.25;100.00;96654.06;12763318;23;20021;-85
2021/12/02 04:30:40;;;;;;;5.68;3.05;;;;;;;4.34;100.00;96645.28;12815779;23;20097;-86
2021/12/02 04:47:41;;;;;;;3.22;2.53;;;;;;;4.41;100.00;96651.63;12804398;23;20032;-82
2021/12/02 04:53:09;;;;;;;3.30;2.50;;;;;;;4.40;100.00;96644.78;12802164;23;20047;-84
2021/12/02 04:58:14;;;;;;;5.10;2.80;;;;;;;4.36;100.00;96649.16;12801293;23;20066;-82
2021/12/02 05:03:20;;;;;;;4.40;2.90;;;;;;;4.24;100.00;96651.75;12808032;23;20009;-82
2021/12/02 05:08:22;;;;;;;6.85;3.30;;;;;;;4.20;100.00;96656.13;12791329;23;20021;-84
2021/12/02 05:13:28;;;;;;;5.63;3.00;;;;;;;4.32;100.00;96661.53;12832601;23;20082;-86
2021/12/02 05:18:30;;;;;;;7.75;3.00;;;;;;;4.29;100.00;96654.97;12841954;23;20093;-83
2021/12/02 05:23:33;;;;;;;3.85;2.60;;;;;;;4.33;100.00;96657.00;12841091;23;20029;-87
2021/12/02 05:28:39;;;;;;;3.88;2.95;;;;;;;4.29;100.00;96659.50;12848535;23;20059;-84
2021/12/02 05:33:41;;;;;;;3.80;3.00;;;;;;;4.24;100.00;96660.47;12847426;23;20021;-85
2021/12/02 05:38:52;;;;;;;7.72;2.90;;;;;;;4.32;100.00;96645.59;12818170;23;20028;-83
2021/12/02 05:44:00;;;;;;;4.93;2.60;;;;;;;4.43;100.00;96643.34;12822790;23;20067;-83
2021/12/02 05:49:22;;;;;;;5.18;2.72;;;;;;;4.34;100.00;96646.06;12848829;23;20013;-84
2021/12/02 06:00:41;;;;;;;4.10;3.00;;;;;;;4.40;100.00;96633.38;12815231;23;20052;-83
2021/12/02 06:06:02;;;;;;;4.72;2.88;;;;;;;4.39;100.00;96631.78;12783416;23;20063;-84
2021/12/02 06:11:10;;;;;;;4.55;2.70;;;;;;;4.49;100.00;96637.53;12783378;23;20075;-85
2021/12/02 06:22:14;;;;;;;4.70;3.03;;;;;;;4.32;100.00;96645.59;12772181;23;20025;-84
2021/12/02 06:28:11;;;;;;;4.60;3.30;;;;;;;4.35;100.00;96650.25;12753876;23;20236;-87
2021/12/02 06:33:20;;;;;;;5.15;3.38;;;;;;;4.16;100.00;96673.81;12786026;23;20072;-88
2021/12/02 06:38:32;;;;;;;2.33;2.13;;;;;;;3.82;100.00;96678.16;12787351;23;20014;-87
2021/12/02 06:44:01;;;;;;;2.60;2.40;;;;;;;3.53;100.00;96683.41;12787196;23;20005;-82
2021/12/02 06:49:50;;;;;;;3.30;2.45;;;;;;;3.63;100.00;96683.84;12655257;23;20024;-88
2021/12/02 06:54:53;;;;;;;3.22;2.78;;;;;;;3.34;100.00;96681.88;12789776;23;20005;-85
2021/12/02 07:00:29;;;;;;;3.45;2.45;;;;;;;3.48;100.00;96680.94;12750619;23;20037;-74
2021/12/02 07:05:32;;;;;;;3.10;2.60;;;;;;;3.49;100.00;96674.53;12730370;23;20032;-78
2021/12/02 07:10:33;;;;;;;3.80;2.80;;;;;;;3.41;100.00;96687.50;12731570;23;20013;-76
2021/12/02 07:15:41;;;;;;;4.95;3.38;;;;;;;3.46;100.00;96691.81;12732096;23;20014;-76
2021/12/02 07:20:46;;;;;;;4.00;2.70;;;;;;;3.40;100.00;96691.25;12729248;23;20013;-75
2021/12/02 07:25:49;;;;;;;2.80;2.30;;;;;;;3.37;100.00;96691.06;12735646;23;20554;-80
2021/12/02 07:30:53;;;;;;;3.93;2.67;;;;;;;3.27;100.00;96702.00;12715780;23;20044;-80
2021/12/02 07:35:55;;;;;;;3.90;2.65;;;;;;;3.27;100.00;96704.66;12719583;23;21039;-79
2021/12/02 07:41:05;;;;;;;2.75;1.90;;;;;;;3.17;100.00;96711.06;12738897;23;20017;-80
2021/12/02 07:46:06;;;;;;;4.03;2.10;;;;;;;2.93;100.00;96729.31;12791276;23;20480;-77
2021/12/02 07:51:13;;;;;;;2.88;1.88;;;;;;;2.79;100.00;96735.53;12808994;23;20025;-81
2021/12/02 07:56:17;;;;;;;4.43;2.00;;;;;;;2.60;100.00;96737.66;12822524;23;20055;-79
2021/12/02 08:01:17;;;;;;;2.15;1.70;;;;;;;2.64;100.00;96745.78;12791966;23;20025;-80
2021/12/02 08:06:18;;;;;;;2.13;1.40;;;;;;;2.62;100.00;96753.25;12782950;23;20009;-80
2021/12/02 08:11:21;;;;;;;2.08;1.45;;;;;;;2.62;100.00;96756.69;12792833;23;20017;-82
2021/12/02 08:16:21;;;;;;;4.97;1.90;;;;;;;2.53;100.00;96755.88;12825434;23;20016;-80
2021/12/02 08:21:23;;;;;;;2.95;1.60;;;;;;;2.45;100.00;96760.06;12808920;23;20075;-79
2021/12/02 08:26:24;;;;;;;4.28;2.85;;;;;;;2.58;100.00;96768.22;12807193;23;20540;-77
2021/12/02 08:31:24;;;;;;;2.95;2.10;;;;;;;2.66;100.00;96767.44;12763546;23;20100;-78
2021/12/02 08:36:40;;;;;;;3.35;1.50;;;;;;;2.63;100.00;96771.47;12828629;23;20540;-79
2021/12/02 08:41:45;;;;;;;3.40;1.85;;;;;;;2.52;100.00;96767.56;12797056;23;20021;-79
2021/12/02 08:46:49;;;;;;;2.00;1.40;;;;;;;2.35;100.00;96775.44;12819864;23;20021;-79
2021/12/02 08:51:51;;;;;;;4.05;2.10;;;;;;;2.41;100.00;96790.91;12791065;23;20025;-79
2021/12/02 08:56:54;;;;;;;4.07;2.70;;;;;;;2.50;100.00;96790.94;12787481;23;20322;-77
2021/12/02 09:01:56;;;;;;;3.10;2.42;;;;;;;2.40;100.00;96799.16;12789987;23;20017;-80
2021/12/02 09:06:57;;;;;;;2.58;2.10;;;;;;;2.44;100.00;96802.72;12789882;23;20044;-78
2021/12/02 09:11:58;;;;;;;2.42;1.50;;;;;;;2.20;100.00;96800.47;12771440;23;20019;-77
2021/12/02 09:16:59;;;;;;;3.53;2.38;;;;;;;2.13;100.00;96802.75;12804567;23;20365;-79
2021/12/02 09:22:00;;;;;;;5.95;5.35;;;;;;;2.32;100.00;96811.25;12820942;23;20020;-78
2021/12/02 09:27:01;;;;;;;2.70;2.40;;;;;;;2.51;100.00;96821.63;12842589;23;20081;-77
2021/12/02 09:32:03;;;;;;;2.72;2.08;;;;;;;2.56;100.00;96816.97;12777413;23;20025;-78
2021/12/02 09:37:04;;;;;;;3.25;2.17;;;;;;;2.51;100.00;96830.34;12789103;23;20131;-78
2021/12/02 09:42:11;;;;;;;2.20;1.92;;;;;;;2.05;100.00;96820.16;12810808;23;20032;-78
2021/12/02 09:47:11;;;;;;;2.70;1.75;;;;;;;2.04;100.00;96821.25;12815112;23;20410;-76
2021/12/02 09:52:14;;;;;;;2.22;1.63;;;;;;;1.95;100.00;96820.41;12784672;23;20017;-78
2021/12/02 09:57:18;;;;;;;4.47;1.50;;;;;;;1.69;100.00;96826.31;12791022;23;20017;-78
2021/12/02 10:02:21;;;;;;;2.30;1.45;;;;;;;1.67;100.00;96823.19;12813152;23;20013;-78
2021/12/02 10:07:46;;;;;;;2.25;1.23;;;;;;;1.56;100.00;96824.53;12798700;23;20024;-77
2021/12/02 10:13:26;;;;;;;3.60;1.83;;;;;;;1.84;100.00;96819.88;12792486;23;20013;-78
2021/12/02 10:18:35;;;;;;;2.35;1.23;;;;;;;2.07;100.00;96811.91;12805516;23;20025;-79
2021/12/02 10:23:46;;;;;;;1.55;1.15;;;;;;;2.11;100.00;96812.88;12813001;23;20096;-78
2021/12/02 10:28:47;;;;;;;3.65;1.60;;;;;;;1.95;100.00;96805.31;12812352;23;20068;-78
2021/12/02 10:33:57;;;;;;;2.35;1.52;;;;;;;1.92;100.00;96805.94;12813266;23;20025;-77
2021/12/02 10:39:01;;;;;;;2.78;1.73;;;;;;;1.75;100.00;96813.75;12814561;23;20021;-78
2021/12/02 10:44:23;;;;;;;3.03;2.10;;;;;;;1.82;100.00;96821.25;12787867;23;20020;-78
2021/12/02 10:49:25;;;;;;;6.30;3.03;;;;;;;2.11;100.00;96813.66;12818201;23;20028;-78
2021/12/02 10:54:28;;;;;;;3.42;2.00;;;;;;;2.48;100.00;96819.59;12829564;23;20440;-80
2021/12/02 10:59:47;;;;;;;3.42;2.40;;;;;;;2.88;100.00;96809.72;12798154;23;20109;-79
2021/12/02 11:05:01;;;;;;;2.15;1.80;;;;;;;2.77;100.00;96803.94;12817623;23;20127;-79
2021/12/02 11:10:09;;;;;;;3.42;2.08;;;;;;;3.09;100.00;96794.78;12793673;23;20028;-77
2021/12/02 11:15:18;;;;;;;3.30;2.72;;;;;;;3.29;100.00;96790.75;12775720;23;20076;-79
2021/12/02 11:20:51;;;;;;;2.83;1.92;;;;;;;3.41;100.00;96780.31;12798690;23;20021;-79
2021/12/02 11:25:57;;;;;;;3.35;2.00;;;;;;;3.12;100.00;96788.09;12798949;23;20021;-79
2021/12/02 11:31:06;;;;;;;3.00;2.28;;;;;;;3.31;100.00;96791.22;12773309;23;20091;-79
2021/12/02 11:36:28;;;;;;;3.65;2.58;;;;;;;3.59;100.00;96785.59;12777609;23;20031;-79
2021/12/02 11:41:31;;;;;;;2.30;2.00;;;;;;;3.65;100.00;96793.06;12772793;23;20024;-79
2021/12/02 11:46:40;;;;;;;2.22;1.80;;;;;;;3.68;100.00;96791.69;12788211;23;20017;-78
2021/12/02 11:51:42;;;;;;;1.85;1.40;;;;;;;3.49;100.00;96793.88;12812959;23;20037;-79
2021/12/02 11:56:44;;;;;;;2.22;1.33;;;;;;;3.59;100.00;96781.06;12821051;23;20017;-75
2021/12/02 12:01:46;;;;;;;2.83;2.08;;;;;;;3.34;100.00;96793.25;12831631;23;20044;-79
2021/12/02 12:06:54;;;;;;;2.72;1.75;;;;;;;3.27;100.00;96806.19;12802824;23;20025;-79
2021/12/02 12:11:57;;;;;;;2.88;2.05;;;;;;;3.24;100.00;96806.81;12803694;23;20079;-78
2021/12/02 12:17:15;;;;;;;2.47;2.23;;;;;;;3.23;100.00;96812.44;12773458;23;20093;-79
2021/12/02 12:22:29;;;;;;;3.83;2.60;;;;;;;3.40;100.00;96807.91;12824886;23;20005;-83
2021/12/02 12:27:32;;;;;;;3.42;2.40;;;;;;;3.22;100.00;96811.66;12820923;23;20021;-81
2021/12/02 12:33:01;;;;;;;7.13;2.80;;;;;;;3.18;100.00;96809.91;12797001;23;20040;-81
2021/12/02 12:38:29;;;;;;;4.43;3.13;;;;;;;3.19;100.00;96809.59;12820522;23;20028;-81
2021/12/02 12:43:34;;;;;;;2.80;2.38;;;;;;;3.24;100.00;96819.28;12771860;23;20017;-80
2021/12/02 12:48:45;;;;;;;;;;;;;;;;;;;;;
2021/12/02 12:54:14;;;;;;;3.10;2.80;;;;;;;3.00;100.00;96803.81;12831318;23;20025;-79
2021/12/02 12:59:22;;;;;;;2.53;1.95;;;;;;;2.85;100.00;96807.69;12833353;23;20449;-79
2021/12/02 13:05:01;;;;;;;3.03;2.70;;;;;;;2.78;100.00;96812.66;12815754;23;20008;-80
2021/12/02 13:10:14;;;;;;;3.67;2.97;;;;;;;2.70;100.00;96821.38;12816893;23;20028;-82
2021/12/02 13:15:21;;;;;;;4.10;3.10;;;;;;;2.78;100.00;96823.25;12816386;23;20039;-82
2021/12/02 13:20:41;;;;;;;5.50;2.97;;;;;;;2.81;100.00;96828.72;12845785;23;20016;-79
2021/12/02 13:25:51;;;;;;;4.80;3.60;;;;;;;2.86;100.00;96817.22;12836591;23;20075;-80
2021/12/02 13:31:07;;;;;;;3.33;2.80;;;;;;;2.92;100.00;96831.06;12782398;23;20048;-81
2021/12/02 13:36:20;;;;;;;6.10;3.92;;;;;;;3.04;100.00;96833.94;12830496;23;20021;-79
2021/12/02 13:41:21;;;;;;;4.40;3.67;;;;;;;2.90;100.00;96841.97;12795362;23;20017;-79
2021/12/02 13:46:34;;;;;;;4.68;3.35;;;;;;;2.96;100.00;96847.94;12790696;23;20021;-77
2021/12/02 13:57:29;;;;;;;4.40;3.40;;;;;;;2.78;100.00;96860.34;12816125;23;20017;-79
2021/12/02 14:02:29;;;;;;;;;;;;;;;2.91;100.00;96859.44;12785005;23;20028;-79
2021/12/02 14:07:34;;;;;;;5.22;4.15;;;;;;;2.88;100.00;96857.41;12810608;23;19988;-80
2021/12/02 14:12:46;;;;;;;3.53;3.08;;;;;;;2.96;100.00;96855.88;12811310;23;20020;-78
2021/12/02 14:17:54;;;;;;;4.00;2.97;;;;;;;2.92;100.00;96854.91;12804121;23;20532;-79
2021/12/02 14:22:58;;;;;;;4.75;3.70;;;;;;;2.95;100.00;96871.00;12773785;23;20047;-78
2021/12/02 14:28:07;;;;;;;;;;;;;;;2.89;100.00;96879.41;12772024;23;20072;-80
2021/12/02 14:33:12;;;;;;;5.55;3.83;;;;;;;2.86;100.00;96883.44;12747802;23;19967;-79
2021/12/02 14:38:34;;;;;;;5.70;4.05;;;;;;;2.95;100.00;96888.78;12774039;23;20021;-78
2021/12/02 14:43:35;;;;;;;5.75;4.10;;;;;;;2.81;100.00;96897.59;12802804;23;20013;-83
2021/12/02 14:48:38;;;;;;;6.50;3.97;;;;;;;2.92;100.00;96908.69;12752327;23;20040;-80
2021/12/02 14:53:47;;;;;;;6.88;4.15;;;;;;;2.83;100.00;96907.88;12808446;23;20021;-80
2021/12/02 14:59:14;;;;;;;5.50;3.72;;;;;;;2.77;100.00;96922.38;12771035;23;20073;-80
2021/12/02 15:04:21;;;;;;;6.57;4.60;;;;;;;2.75;100.00;96933.28;12798565;23;20032;-84
2021/12/02 15:09:39;;;;;;;5.43;4.03;;;;;;;2.78;100.00;96932.66;12851636;23;20032;-79
2021/12/02 15:14:46;;;;;;;5.25;4.00;;;;;;;2.66;100.00;96943.06;12790847;23;20021;-80
2021/12/02 15:20:00;;;;;;;5.32;4.03;;;;;;;2.71;100.00;96958.81;12818665;23;20017;-83
2021/12/02 15:25:41;;;;;;;5.32;4.13;;;;;;;2.71;100.00;96952.72;12763428;23;20085;-82
2021/12/02 15:31:05;;;;;;;6.05;4.25;;;;;;;2.77;100.00;96964.75;12759751;23;20060;-80
2021/12/02 15:36:09;;;;;;;5.55;3.80;;;;;;;2.46;100.00;96975.31;12786943;23;20044;-80
2021/12/02 15:41:15;;;;;;;5.70;3.10;;;;;;;2.11;100.00;96975.09;12759570;23;20029;-80
2021/12/02 15:46:27;;;;;;;7.10;3.33;;;;;;;2.00;100.00;96989.59;12800167;23;20028;-80
2021/12/02 15:51:29;;;;;;;5.95;2.80;;;;;;;2.03;100.00;97001.47;12781600;23;20017;-81
2021/12/02 15:56:41;;;;;;;6.00;2.97;;;;;;;1.85;100.00;97008.47;12812890;23;20140;-84
2021/12/02 16:07:22;;;;;;;3.78;2.05;;;;;;;1.50;100.00;97020.56;12853124;23;20016;-82
2021/12/02 16:12:42;;;;;;;2.78;1.70;;;;;;;1.32;100.00;97033.59;12825876;23;20106;-83
2021/12/02 16:17:44;;;;;;;5.63;2.80;;;;;;;1.18;100.00;97042.56;12817352;23;20029;-83
2021/12/02 16:23:01;;;;;;;3.67;2.83;;;;;;;1.01;100.00;97053.72;12782532;23;20045;-83
2021/12/02 16:28:32;;;;;;;4.65;2.70;;;;;;;0.93;100.00;97072.88;12832010;23;20012;-83
2021/12/02 16:34:15;;;;;;;;;;;;;;;;;;;;;
2021/12/02 16:39:44;;;;;;;;;;;;;;;;;;;;;
2021/12/02 16:45:35;;;;;;;;;;;;;;;;;;;;;
2021/12/02 16:51:11;;;;;;;8.25;4.63;;;;;;;0.47;100.00;97119.25;12506286;23;20072;-82
2021/12/02 16:56:54;;;;;;;8.50;4.55;;;;;;;0.48;100.00;97117.41;12526042;23;20031;-84
2021/12/02 17:02:12;;;;;;;6.57;3.75;;;;;;;0.63;100.00;97127.72;12688321;23;20055;-82
2021/12/02 17:08:04;;;;;;;9.27;4.32;;;;;;;0.28;100.00;97127.16;12779083;23;20040;-83
2021/12/02 17:13:24;;;;;;;9.38;4.32;;;;;;;0.32;100.00;97139.78;12766010;23;20021;-82
2021/12/02 17:18:34;;;;;;;8.00;4.13;;;;;;;0.30;100.00;97149.84;12717803;23;20030;-84
2021/12/02 17:23:42;;;;;;;7.90;4.60;;;;;;;0.31;100.00;97149.56;12637003;23;20022;-82
2021/12/02 17:29:23;;;;;;;7.82;5.22;;;;;;;0.39;100.00;97163.97;12691794;23;20018;-83
2021/12/02 17:35:13;;;;;;;12.95;6.97;;;;;;;0.42;100.00;97180.03;12702642;23;20088;-82
2021/12/02 17:40:41;;;;;;;11.50;7.53;;;;;;;0.66;100.00;97187.91;12706663;23;20022;-82
2021/12/02 17:46:10;;;;;;;11.60;7.07;;;;;;;0.75;100.00;97196.75;12690309;23;20029;-83
2021/12/02 17:51:13;;;;;;;12.48;7.32;;;;;;;0.78;100.00;97209.38;12711877;23;20094;-82
2021/12/02 17:56:23;;;;;;;13.90;7.82;;;;;;;0.94;100.00;97215.22;12697988;23;20038;-85
2021/12/02 18:14:01;;;;;;;10.80;6.03;;;;;;;1.16;100.00;97240.28;12670016;23;20100;-84
2021/12/02 18:19:34;;;;;;;;;;;;;;;;;;;;;
2021/12/02 18:25:16;;;;;;;9.75;6.00;;;;;;;1.06;100.00;97257.06;12782332;23;20084;-81
2021/12/02 18:31:05;;;;;;;9.15;5.97;;;;;;;1.25;100.00;97260.47;12833739;23;20044;-82
2021/12/02 18:36:43;;;;;;;11.63;5.75;;;;;;;1.21;100.00;97269.28;12827304;23;20174;-82
2021/12/02 18:41:55;;;;;;;12.02;6.38;;;;;;;1.36;100.00;97287.53;12752757;23;20077;-83
2021/12/02 18:47:35;;;;;;;10.90;6.50;;;;;;;1.32;100.00;97294.47;12796213;23;20111;-83
2021/12/02 18:52:55;;;;;;;;;;;;;;;;;;;;;
2021/12/02 18:59:03;;;;;;;10.63;6.22;;;;;;;1.22;100.00;97318.41;12837333;23;20009;-84
2021/12/02 19:04:58;;;;;;;10.95;6.70;;;;;;;0.98;100.00;97324.53;12787017;23;20025;-85
2021/12/02 19:27:57;;;;;;;13.82;7.43;;;;;;;1.02;100.00;97367.03;12830271;23;20013;-86
2021/12/02 19:33:28;;;;;;;11.15;7.32;;;;;;;0.92;100.00;97372.44;12832946;23;20032;-83
2021/12/02 19:38:30;;;;;;;11.07;7.07;;;;;;;0.94;100.00;97386.94;12825423;23;20024;-87
2021/12/02 19:43:34;;;;;;;12.20;7.60;;;;;;;0.95;100.00;97399.06;12827918;23;20001;-86
2021/12/02 19:54:07;;;;;;;11.05;6.53;;;;;;;0.94;100.00;97428.41;12790856;23;20060;-85
2021/12/02 20:05:12;;;;;;;10.90;6.70;;;;;;;0.91;100.00;97439.53;12765439;23;20218;-82
2021/12/02 20:10:30;;;;;;;15.45;9.00;;;;;;;0.85;100.00;97444.09;12745556;23;20021;-83
2021/12/02 20:16:40;;;;;;;10.85;6.22;;;;;;;1.03;100.00;97459.22;12770531;23;20028;-83
2021/12/02 20:40:32;;;;;;;10.75;7.53;;;;;;;1.02;100.00;97472.72;12825669;23;20021;-80
2021/12/02 20:46:20;;;;;;;13.05;8.55;;;;;;;0.99;100.00;97481.19;12802755;23;20023;-82
2021/12/02 20:56:55;;;;;;;;;;;;;;;;;;;;;
2021/12/02 21:02:32;;;;;;;16.33;9.02;;;;;;;0.88;100.00;97517.50;12895736;22;20385;-87
2021/12/02 21:07:47;;;;;;;18.35;10.15;;;;;;;0.90;100.00;97522.50;12859248;23;20500;-84
2021/12/02 21:13:44;;;;;;;19.35;10.93;;;;;;;0.91;100.00;97521.41;12892664;23;20068;-84
2021/12/02 21:19:12;;;;;;;18.33;10.15;;;;;;;0.81;100.00;97530.22;12880082;23;20009;-83
2021/12/02 21:24:21;;;;;;;19.20;10.80;;;;;;;0.85;100.00;97536.53;12886408;22;20024;-83
2021/12/02 21:29:28;;;;;;;21.58;11.00;;;;;;;0.87;100.00;97549.47;12872594;22;20111;-83
2021/12/02 21:34:48;;;;;;;16.17;9.32;;;;;;;0.96;100.00;97555.72;12903389;23;20012;-84
2021/12/02 21:39:57;;;;;;;18.63;9.87;;;;;;;0.99;100.00;97557.81;12876176;23;20065;-85
2021/12/02 21:45:30;;;;;;;16.20;9.80;;;;;;;0.91;100.00;97561.03;12892880;23;20024;-86
2021/12/02 21:56:17;;;;;;;18.57;9.83;;;;;;;0.99;100.00;97571.03;12777865;23;20021;-82
2021/12/02 22:07:03;;;;;;;15.98;9.13;;;;;;;0.86;100.00;97585.66;12801563;23;20025;-85
2021/12/02 22:12:09;;;;;;;16.98;10.45;;;;;;;0.76;100.00;97596.31;12764444;23;20094;-85
2021/12/02 22:17:36;;;;;;;19.83;10.05;;;;;;;0.72;100.00;97597.91;12737286;23;20028;-83
2021/12/02 22:22:43;;;;;;;20.88;11.75;;;;;;;0.88;100.00;97603.88;12760116;23;20022;-81
2021/12/02 22:27:45;;;;;;;19.33;10.30;;;;;;;0.77;100.00;97603.97;12782914;23;20073;-82
2021/12/02 22:38:03;;;;;;;22.15;11.20;;;;;;;0.81;100.00;97602.31;12779973;23;20025;-82
2021/12/02 22:43:28;;;;;;;20.55;12.13;;;;;;;0.67;100.00;97611.16;12749862;23;20029;-83
2021/12/02 22:48:35;;;;;;;22.95;12.45;;;;;;;0.66;100.00;97615.66;12744109;23;20128;-82
2021/12/02 22:53:40;;;;;;;24.90;12.93;;;;;;;0.73;100.00;97624.06;12782006;23;20017;-83
2021/12/02 22:58:43;;;;;;;23.13;12.23;;;;;;;0.71;100.00;97636.75;12809066;23;20025;-82
2021/12/02 23:03:51;;;;;;;24.70;13.23;;;;;;;0.65;100.00;97632.56;12818882;23;20040;-82
2021/12/02 23:09:07;;;;;;;23.85;11.95;;;;;;;0.62;100.00;97632.31;12795146;23;20108;-82
2021/12/02 23:14:13;;;;;;;25.63;12.40;;;;;;;0.58;100.00;97642.66;12831737;23;20017;-82
2021/12/02 23:19:47;;;;;;;23.60;12.80;;;;;;;0.58;100.00;97650.56;12836017;23;20024;-82
2021/12/02 23:25:03;;;;;;;26.92;12.60;;;;;;;0.61;100.00;97644.72;12790291;23;20095;-82
2021/12/02 23:30:05;;;;;;;23.13;11.85;;;;;;;0.54;100.00;97642.38;12758980;23;20025;-83
2021/12/02 23:35:10;;;;;;;25.95;13.48;;;;;;;0.57;100.00;97655.06;12814655;23;20052;-82
2021/12/02 23:40:13;;;;;;;24.77;13.90;;;;;;;0.68;100.00;97661.06;12791696;23;20045;-82
2021/12/02 23:45:20;;;;;;;24.42;13.20;;;;;;;0.58;100.00;97671.69;12789477;23;20398;-82
2021/12/02 23:50:25;;;;;;;25.42;12.52;;;;;;;0.62;100.00;97680.63;12785761;23;20029;-82
2021/12/02 23:55:31;;;;;;;25.73;12.98;;;;;;;0.73;100.00;97687.47;12807084;23;20017;-82
